Time;durP1;ratioP1;P1;durP2;ratioP2;P2;SDS_P1;SDS_P2;PMS_P1;PMS_P2;Temp;Humidity;BMP_temperature;BMP_pressure;BME280_temperature;BME280_humidity;BME280_pressure;Samples;Min_cycle;Max_cycle;Signal;HPM_P1;HPM_P2
2022/12/18 00:01:16;;;;;;;0.80;0.80;;;-3.20;99.90;;;;;;4935045;28;20135;-76
2022/12/18 00:03:42;;;;;;;0.80;0.80;;;-3.30;99.90;;;;;;4941757;28;20099;-76
2022/12/18 00:06:08;;;;;;;0.80;0.80;;;-3.40;99.90;;;;;;4948610;28;20046;-76
2022/12/18 00:08:34;;;;;;;0.80;0.80;;;-3.70;99.90;;;;;;4959570;28;20096;-76
2022/12/18 00:11:08;;;;;;;0.85;0.85;;;-3.80;99.90;;;;;;4948118;28;20053;-76
2022/12/18 00:13:35;;;;;;;0.82;0.82;;;-3.90;99.90;;;;;;4952720;28;20091;-76
2022/12/18 00:16:06;;;;;;;0.80;0.80;;;-4.00;99.90;;;;;;4947031;28;20091;-76
2022/12/18 00:18:32;;;;;;;0.90;0.90;;;-4.20;99.90;;;;;;4956856;28;20218;-76
2022/12/18 00:21:05;;;;;;;0.85;0.85;;;-4.30;99.90;;;;;;4946002;28;20080;-76
2022/12/18 00:23:33;;;;;;;0.90;0.90;;;-4.40;99.90;;;;;;4944183;28;20120;-76
2022/12/18 00:26:01;;;;;;;0.80;0.80;;;-4.50;99.90;;;;;;4944049;28;20550;-76
2022/12/18 00:28:27;;;;;;;0.90;0.90;;;-4.60;99.90;;;;;;4955706;28;20041;-76
2022/12/18 00:31:04;;;;;;;0.80;0.80;;;-4.60;99.90;;;;;;4950054;28;20475;-77
2022/12/18 00:33:31;;;;;;;0.90;0.90;;;-4.50;99.90;;;;;;4948916;28;20778;-77
2022/12/18 00:36:09;;;;;;;0.88;0.88;;;-4.40;99.90;;;;;;4960823;28;20045;-76
2022/12/18 00:38:35;;;;;;;0.90;0.90;;;-4.30;99.90;;;;;;4942517;28;20057;-76
2022/12/18 00:41:01;;;;;;;0.90;0.90;;;-4.30;99.90;;;;;;4938336;28;20041;-76
2022/12/18 00:43:27;;;;;;;0.90;0.90;;;-4.20;99.90;;;;;;4947585;28;20058;-76
2022/12/18 00:45:54;;;;;;;0.90;0.90;;;-4.30;99.90;;;;;;4944439;28;20525;-76
2022/12/18 00:48:20;;;;;;;0.90;0.90;;;-4.40;99.90;;;;;;4940425;28;20359;-76
2022/12/18 00:50:47;;;;;;;0.90;0.90;;;-4.30;99.90;;;;;;4946257;28;20446;-76
2022/12/18 00:53:13;;;;;;;0.90;0.90;;;-4.40;99.90;;;;;;4959459;28;20045;-76
2022/12/18 00:55:40;;;;;;;0.90;0.90;;;-4.20;99.90;;;;;;4949191;28;20076;-76
2022/12/18 00:58:06;;;;;;;0.90;0.90;;;-4.10;99.90;;;;;;4947852;28;20365;-76
2022/12/18 01:00:33;;;;;;;0.90;0.90;;;-4.00;99.90;;;;;;4956754;28;20860;-76
2022/12/18 01:02:59;;;;;;;0.80;0.80;;;-4.30;99.90;;;;;;4949911;28;20056;-76
2022/12/18 01:05:25;;;;;;;0.90;0.90;;;-4.30;99.90;;;;;;4949088;28;20034;-76
2022/12/18 01:07:50;;;;;;;0.90;0.90;;;-4.30;99.90;;;;;;4948218;28;20049;-76
2022/12/18 01:10:16;;;;;;;0.90;0.90;;;-4.20;99.90;;;;;;4953960;28;20616;-76
2022/12/18 01:12:43;;;;;;;0.90;0.90;;;-4.40;99.90;;;;;;4950801;28;20041;-76
2022/12/18 01:15:10;;;;;;;0.80;0.80;;;-4.40;99.90;;;;;;4951916;28;20080;-76
2022/12/18 01:17:35;;;;;;;0.90;0.90;;;-4.40;99.90;;;;;;4964920;28;20536;-76
2022/12/18 01:20:01;;;;;;;0.90;0.90;;;-4.40;99.90;;;;;;4952411;28;20823;-76
2022/12/18 01:22:27;;;;;;;0.80;0.80;;;-4.30;99.90;;;;;;4957135;28;20080;-76
2022/12/18 01:24:53;;;;;;;0.90;0.90;;;-4.40;99.90;;;;;;4948598;28;20061;-76
2022/12/18 01:27:19;;;;;;;0.90;0.90;;;-4.30;99.90;;;;;;4948239;28;20068;-76
2022/12/18 01:29:45;;;;;;;0.90;0.90;;;-4.40;99.90;;;;;;4957737;28;20041;-75
2022/12/18 01:32:11;;;;;;;0.90;0.90;;;-4.50;99.90;;;;;;4953606;28;20048;-76
2022/12/18 01:34:41;;;;;;;0.90;0.90;;;-4.40;99.90;;;;;;4957109;28;20172;-76
2022/12/18 01:37:07;;;;;;;0.90;0.90;;;-4.60;99.90;;;;;;4951673;28;20815;-76
2022/12/18 01:39:33;;;;;;;0.82;0.82;;;-4.60;99.90;;;;;;4946712;28;20103;-76
2022/12/18 01:42:02;;;;;;;0.90;0.90;;;-4.60;99.90;;;;;;4968753;28;20528;-76
2022/12/18 01:44:56;;;;;;;0.90;0.90;;;-4.70;99.90;;;;;;4954258;28;20380;-76
2022/12/18 01:47:43;;;;;;;0.90;0.90;;;-4.60;99.90;;;;;;4951562;28;20044;-76
2022/12/18 01:50:15;;;;;;;1.00;1.00;;;-4.60;99.90;;;;;;4951623;28;20156;-76
2022/12/18 01:52:47;;;;;;;0.90;0.90;;;-4.60;99.90;;;;;;4962708;28;20448;-76
2022/12/18 01:55:16;;;;;;;0.90;0.90;;;-4.60;99.90;;;;;;4952587;28;20055;-76
2022/12/18 01:57:42;;;;;;;0.90;0.90;;;-4.80;99.90;;;;;;4957114;28;20121;-76
2022/12/18 02:00:12;;;;;;;0.90;0.90;;;-4.70;99.90;;;;;;4948925;28;20046;-76
2022/12/18 02:02:40;;;;;;;0.90;0.90;;;-4.80;99.90;;;;;;4942976;28;20053;-76
2022/12/18 02:05:07;;;;;;;0.90;0.90;;;-4.70;99.90;;;;;;4950462;28;20521;-76
2022/12/18 02:07:35;;;;;;;0.90;0.90;;;-4.70;99.90;;;;;;4947774;28;20116;-76
2022/12/18 02:10:01;;;;;;;0.90;0.90;;;-4.80;99.90;;;;;;4964355;28;20057;-76
2022/12/18 02:12:39;;;;;;;0.90;0.90;;;-4.80;99.90;;;;;;4958238;28;20546;-76
2022/12/18 02:15:21;;;;;;;0.90;0.90;;;-4.80;99.90;;;;;;4976716;28;20041;-76
2022/12/18 02:18:06;;;;;;;0.90;0.90;;;-4.80;99.90;;;;;;4939635;28;20044;-76
2022/12/18 02:20:56;;;;;;;0.90;0.90;;;-5.00;99.90;;;;;;4947117;28;20487;-76
2022/12/18 02:23:54;;;;;;;2.45;2.35;;;-5.00;99.90;;;;;;4912445;28;20249;-76
2022/12/18 02:26:25;;;;;;;0.90;0.90;;;-5.00;99.90;;;;;;4946765;28;20306;-76
2022/12/18 02:29:10;;;;;;;0.90;0.90;;;-5.10;99.90;;;;;;4970160;28;21489;-76
2022/12/18 02:31:44;;;;;;;0.90;0.90;;;-5.10;99.90;;;;;;4950772;28;20242;-76
2022/12/18 02:34:12;;;;;;;0.90;0.90;;;-5.10;99.90;;;;;;4946086;28;20076;-76
2022/12/18 02:36:41;;;;;;;0.90;0.90;;;-5.10;99.90;;;;;;4945276;28;20375;-76
2022/12/18 02:39:10;;;;;;;1.00;1.00;;;-5.10;99.90;;;;;;4954054;28;21252;-76
2022/12/18 02:41:36;;;;;;;0.90;0.90;;;-5.20;99.90;;;;;;4955275;28;20467;-75
2022/12/18 02:44:08;;;;;;;0.90;0.90;;;-5.20;99.90;;;;;;4947187;28;20045;-76
2022/12/18 02:46:42;;;;;;;0.90;0.90;;;-5.10;99.90;;;;;;4942542;28;20966;-76
2022/12/18 02:49:11;;;;;;;0.90;0.90;;;-5.10;99.90;;;;;;4950457;28;20057;-76
2022/12/18 02:51:50;;;;;;;0.90;0.90;;;-5.10;99.90;;;;;;4956866;28;20360;-76
2022/12/18 02:54:38;;;;;;;0.80;0.80;;;-5.20;99.90;;;;;;4949581;28;20547;-76
2022/12/18 02:57:27;;;;;;;0.90;0.90;;;-5.10;99.90;;;;;;4944190;28;20053;-76
2022/12/18 03:00:18;;;;;;;0.90;0.90;;;-5.20;99.90;;;;;;4942511;28;20395;-76
2022/12/18 03:03:03;;;;;;;0.90;0.90;;;-5.10;99.90;;;;;;4947758;28;20973;-76
2022/12/18 03:05:51;;;;;;;0.90;0.90;;;-5.10;99.90;;;;;;4946098;28;20092;-76
2022/12/18 03:08:27;;;;;;;0.90;0.90;;;-5.20;99.90;;;;;;4947794;28;20160;-76
2022/12/18 03:11:11;;;;;;;0.93;0.93;;;-5.40;99.90;;;;;;4938005;28;20041;-76
2022/12/18 03:13:45;;;;;;;0.90;0.90;;;-5.30;99.90;;;;;;4939205;28;20049;-76
2022/12/18 03:16:15;;;;;;;0.98;0.98;;;-5.30;99.90;;;;;;4944341;28;20045;-76
2022/12/18 03:19:00;;;;;;;0.90;0.90;;;-5.40;99.90;;;;;;4944544;28;20041;-76
2022/12/18 03:21:35;;;;;;;0.90;0.90;;;-5.50;99.90;;;;;;4948206;28;20049;-76
2022/12/18 03:24:05;;;;;;;0.90;0.90;;;-5.40;99.90;;;;;;4936086;28;20061;-76
2022/12/18 03:26:33;;;;;;;0.90;0.90;;;-5.60;99.90;;;;;;4925649;28;20068;-76
2022/12/18 03:29:08;;;;;;;0.90;0.90;;;-5.50;99.90;;;;;;4943598;28;20048;-76
2022/12/18 03:31:37;;;;;;;1.00;1.00;;;-5.50;99.90;;;;;;4957396;28;21144;-76
2022/12/18 03:34:09;;;;;;;0.90;0.90;;;-5.40;99.90;;;;;;4953020;28;20045;-76
2022/12/18 03:36:35;;;;;;;1.00;1.00;;;-5.50;99.90;;;;;;4945846;28;20042;-76
2022/12/18 03:39:01;;;;;;;1.00;1.00;;;-5.40;99.90;;;;;;4940191;28;20056;-76
2022/12/18 03:42:11;;;;;;;0.90;0.90;;;-5.50;99.90;;;;;;4950241;28;20712;-76
2022/12/18 03:44:54;;;;;;;0.90;0.90;;;-5.40;99.90;;;;;;4934502;28;20116;-76
2022/12/18 03:47:25;;;;;;;0.90;0.90;;;-5.50;99.90;;;;;;4939657;28;20132;-75
2022/12/18 03:50:33;;;;;;;1.00;1.00;;;-5.50;99.90;;;;;;4946754;28;20041;-76
2022/12/18 03:53:20;;;;;;;0.90;0.90;;;-5.50;99.90;;;;;;4946637;28;20055;-76
2022/12/18 03:55:49;;;;;;;0.90;0.90;;;-5.40;99.90;;;;;;4947018;28;20057;-75
2022/12/18 03:58:19;;;;;;;0.90;0.90;;;-5.50;99.90;;;;;;4943937;28;20557;-75
2022/12/18 04:00:47;;;;;;;0.90;0.90;;;-5.40;99.90;;;;;;4940951;28;20071;-76
2022/12/18 04:03:14;;;;;;;0.90;0.90;;;-5.50;99.90;;;;;;4950417;28;20072;-75
2022/12/18 04:05:42;;;;;;;1.00;1.00;;;-5.50;99.90;;;;;;4948720;28;20044;-75
2022/12/18 04:08:09;;;;;;;0.90;0.90;;;-5.50;99.90;;;;;;4941758;28;20139;-75
2022/12/18 04:10:36;;;;;;;0.93;0.93;;;-5.60;99.90;;;;;;4934588;28;20033;-76
2022/12/18 04:13:02;;;;;;;0.90;0.90;;;-5.50;99.90;;;;;;4935304;28;20552;-75
2022/12/18 04:15:27;;;;;;;0.90;0.90;;;-5.50;99.90;;;;;;4941253;28;20084;-75
2022/12/18 04:17:54;;;;;;;0.90;0.90;;;-5.50;99.90;;;;;;4936671;28;20643;-76
2022/12/18 04:20:20;;;;;;;0.90;0.90;;;-5.50;99.90;;;;;;4946833;28;20107;-75
2022/12/18 04:22:46;;;;;;;0.90;0.90;;;-5.60;99.90;;;;;;4948534;28;20044;-75
2022/12/18 04:25:12;;;;;;;0.95;0.95;;;-5.50;99.90;;;;;;4936272;28;20052;-75
2022/12/18 04:27:38;;;;;;;0.90;0.90;;;-5.50;99.90;;;;;;4959234;28;20227;-75
2022/12/18 04:30:06;;;;;;;0.90;0.90;;;-5.50;99.90;;;;;;4941521;28;20155;-75
2022/12/18 04:32:34;;;;;;;0.90;0.90;;;-5.50;99.90;;;;;;4950649;28;20045;-75
2022/12/18 04:34:59;;;;;;;1.00;1.00;;;-5.50;99.90;;;;;;4949128;28;20064;-75
2022/12/18 04:37:25;;;;;;;0.90;0.90;;;-5.50;99.90;;;;;;4948603;28;20699;-75
2022/12/18 04:39:51;;;;;;;0.90;0.90;;;-5.50;99.90;;;;;;4944284;28;21063;-75
2022/12/18 04:42:17;;;;;;;0.90;0.90;;;-5.60;99.90;;;;;;4946224;28;20056;-76
2022/12/18 04:44:43;;;;;;;0.90;0.90;;;-5.50;99.90;;;;;;4949857;28;20487;-76
2022/12/18 04:47:09;;;;;;;0.90;0.90;;;-5.70;99.90;;;;;;4946060;28;20042;-76
2022/12/18 04:49:35;;;;;;;0.90;0.90;;;-5.70;99.90;;;;;;4944861;28;20095;-76
2022/12/18 04:52:01;;;;;;;1.00;1.00;;;-5.60;99.90;;;;;;4949070;28;20041;-76
2022/12/18 04:54:26;;;;;;;1.00;1.00;;;-5.60;99.90;;;;;;4938797;28;20049;-76
2022/12/18 04:56:52;;;;;;;0.90;0.90;;;-5.70;99.90;;;;;;4941031;28;20088;-76
2022/12/18 04:59:18;;;;;;;0.90;0.90;;;-5.80;99.90;;;;;;4950108;28;20403;-76
2022/12/18 05:01:44;;;;;;;0.90;0.90;;;-5.80;99.90;;;;;;4946671;28;20045;-76
2022/12/18 05:04:09;;;;;;;0.90;0.90;;;-6.00;99.90;;;;;;4942164;28;20512;-76
2022/12/18 05:06:35;;;;;;;0.90;0.90;;;-6.00;99.90;;;;;;4942863;28;20052;-76
2022/12/18 05:09:02;;;;;;;1.00;1.00;;;-6.00;99.90;;;;;;4947440;28;20043;-75
2022/12/18 05:11:27;;;;;;;0.90;0.90;;;-6.10;99.90;;;;;;4945622;28;21023;-76
2022/12/18 05:13:54;;;;;;;1.00;1.00;;;-6.10;99.90;;;;;;4947033;28;20075;-76
2022/12/18 05:16:19;;;;;;;0.90;0.90;;;-6.20;99.90;;;;;;4947166;28;20081;-75
2022/12/18 05:18:45;;;;;;;0.90;0.90;;;-6.20;99.90;;;;;;4945682;28;20045;-76
2022/12/18 05:21:11;;;;;;;0.90;0.90;;;-6.20;99.90;;;;;;4959023;28;20136;-76
2022/12/18 05:23:37;;;;;;;1.00;1.00;;;-6.30;99.90;;;;;;4949266;28;20134;-76
2022/12/18 05:26:05;;;;;;;1.00;1.00;;;-6.20;99.90;;;;;;4945037;28;20092;-75
2022/12/18 05:28:33;;;;;;;0.93;0.93;;;-6.20;99.90;;;;;;4948472;28;20048;-76
2022/12/18 05:31:02;;;;;;;0.90;0.90;;;-6.30;99.90;;;;;;4954896;28;20102;-76
2022/12/18 05:33:31;;;;;;;1.00;1.00;;;-6.40;99.90;;;;;;4941475;28;20337;-76
2022/12/18 05:36:03;;;;;;;0.90;0.90;;;-6.50;99.90;;;;;;4950757;28;20128;-75
2022/12/18 05:38:31;;;;;;;1.00;1.00;;;-6.50;99.90;;;;;;4935618;28;20086;-75
2022/12/18 05:40:57;;;;;;;1.00;1.00;;;-6.50;99.90;;;;;;4942298;28;20045;-75
2022/12/18 05:43:24;;;;;;;1.00;1.00;;;-6.50;99.90;;;;;;4946452;28;20197;-75
2022/12/18 05:45:50;;;;;;;1.00;1.00;;;-6.50;99.90;;;;;;4939596;28;20687;-75
2022/12/18 05:48:16;;;;;;;1.00;1.00;;;-6.50;99.90;;;;;;4940780;28;20139;-75
2022/12/18 05:50:48;;;;;;;1.00;1.00;;;-6.50;99.90;;;;;;4942300;28;20483;-75
2022/12/18 05:53:16;;;;;;;0.98;0.98;;;-6.40;99.90;;;;;;4943608;28;20045;-75
2022/12/18 05:55:43;;;;;;;1.00;1.00;;;-6.40;99.90;;;;;;4947157;28;20179;-75
2022/12/18 05:58:12;;;;;;;1.00;1.00;;;-6.30;99.90;;;;;;4943237;28;20132;-75
2022/12/18 06:00:42;;;;;;;1.00;1.00;;;-6.30;99.90;;;;;;4947089;28;20524;-75
2022/12/18 06:03:10;;;;;;;1.00;1.00;;;-6.20;99.90;;;;;;4946776;28;20037;-75
2022/12/18 06:05:41;;;;;;;1.00;1.00;;;-6.20;99.90;;;;;;4945349;28;20075;-75
2022/12/18 06:08:08;;;;;;;1.00;1.00;;;-6.20;99.90;;;;;;4941855;28;20215;-75
2022/12/18 06:10:34;;;;;;;0.90;0.90;;;-6.20;99.90;;;;;;4947140;28;20190;-75
2022/12/18 06:13:00;;;;;;;1.00;1.00;;;-6.20;99.90;;;;;;4944008;28;20088;-76
2022/12/18 06:15:26;;;;;;;0.90;0.90;;;-6.20;99.90;;;;;;4947100;28;20425;-75
2022/12/18 06:17:52;;;;;;;1.00;1.00;;;-6.30;99.90;;;;;;4944650;28;23377;-76
2022/12/18 06:20:18;;;;;;;1.00;1.00;;;-6.30;99.90;;;;;;4925129;28;20119;-75
2022/12/18 06:22:44;;;;;;;1.00;1.00;;;-6.30;99.90;;;;;;4932394;28;20045;-76
2022/12/18 06:25:10;;;;;;;0.90;0.90;;;-6.30;99.90;;;;;;4945626;28;20551;-76
2022/12/18 06:27:36;;;;;;;0.90;0.90;;;-6.30;99.90;;;;;;4944723;28;20045;-75
2022/12/18 06:30:03;;;;;;;0.95;0.95;;;-6.30;99.90;;;;;;4942426;28;20041;-75
2022/12/18 06:32:29;;;;;;;1.00;1.00;;;-6.30;99.90;;;;;;4941405;28;20401;-75
2022/12/18 06:34:55;;;;;;;1.00;1.00;;;-6.40;99.90;;;;;;4937989;28;20481;-75
2022/12/18 06:37:24;;;;;;;0.90;0.90;;;-6.40;99.90;;;;;;4943221;28;20160;-75
2022/12/18 06:39:50;;;;;;;1.00;1.00;;;-6.40;99.90;;;;;;4943529;28;20671;-75
2022/12/18 06:42:16;;;;;;;0.90;0.90;;;-6.40;99.90;;;;;;4941664;28;20123;-75
2022/12/18 06:44:42;;;;;;;1.00;1.00;;;-6.30;99.90;;;;;;4943951;28;20041;-75
2022/12/18 06:47:08;;;;;;;1.00;1.00;;;-6.30;99.90;;;;;;4937094;28;20987;-75
2022/12/18 06:49:33;;;;;;;1.00;1.00;;;-6.40;99.90;;;;;;4942851;28;20754;-75
2022/12/18 06:51:59;;;;;;;0.90;0.90;;;-6.50;99.90;;;;;;4939501;28;20562;-75
2022/12/18 06:54:25;;;;;;;1.00;1.00;;;-6.40;99.90;;;;;;4938179;28;20045;-75
2022/12/18 06:56:51;;;;;;;1.00;1.00;;;-6.40;99.90;;;;;;4939777;28;21053;-75
2022/12/18 06:59:17;;;;;;;0.98;0.98;;;-6.40;99.90;;;;;;4939008;28;20056;-75
2022/12/18 07:01:44;;;;;;;0.93;0.93;;;-6.40;99.90;;;;;;4927255;28;20931;-76
2022/12/18 07:04:10;;;;;;;0.90;0.90;;;-6.30;99.90;;;;;;4937760;28;21067;-75
2022/12/18 07:06:36;;;;;;;0.98;0.98;;;-6.30;99.90;;;;;;4940973;28;20045;-75
2022/12/18 07:09:02;;;;;;;0.98;0.98;;;-6.30;99.90;;;;;;4931686;28;20662;-75
2022/12/18 07:11:28;;;;;;;0.90;0.90;;;-6.30;99.90;;;;;;4940513;28;20759;-75
2022/12/18 07:13:54;;;;;;;1.00;1.00;;;-6.30;99.90;;;;;;4940848;28;20041;-75
2022/12/18 07:16:21;;;;;;;0.90;0.90;;;-6.30;99.90;;;;;;4940754;28;20121;-75
2022/12/18 07:18:47;;;;;;;1.00;1.00;;;-6.40;99.90;;;;;;4946271;28;20666;-75
2022/12/18 07:21:15;;;;;;;1.00;1.00;;;-6.30;99.90;;;;;;4936587;28;20618;-75
2022/12/18 07:23:41;;;;;;;1.00;1.00;;;-6.20;99.90;;;;;;4950760;28;20498;-75
2022/12/18 07:26:10;;;;;;;1.00;1.00;;;-6.30;99.90;;;;;;4944811;28;20045;-75
2022/12/18 07:28:38;;;;;;;1.08;1.08;;;-6.30;99.90;;;;;;4951235;28;20849;-75
2022/12/18 07:31:16;;;;;;;1.00;1.00;;;-6.20;99.90;;;;;;4940060;28;20136;-75
2022/12/18 07:33:43;;;;;;;1.00;1.00;;;-6.10;99.90;;;;;;4941531;28;20094;-75
2022/12/18 07:36:09;;;;;;;1.00;1.00;;;-6.20;99.90;;;;;;4938542;28;20969;-74
2022/12/18 07:38:36;;;;;;;1.00;1.00;;;-6.10;99.90;;;;;;4938773;28;20467;-75
2022/12/18 07:41:07;;;;;;;1.00;1.00;;;-6.10;99.90;;;;;;4944435;28;20472;-76
2022/12/18 07:43:34;;;;;;;8.23;7.82;;;-6.00;99.90;;;;;;4934914;28;21019;-75
2022/12/18 07:46:00;;;;;;;1.00;1.00;;;-6.10;99.90;;;;;;4942582;28;20880;-75
2022/12/18 07:48:27;;;;;;;1.00;1.00;;;-6.10;99.90;;;;;;4945422;28;20049;-74
2022/12/18 07:50:53;;;;;;;1.00;1.00;;;-6.10;99.90;;;;;;4972016;28;20057;-74
2022/12/18 07:53:18;;;;;;;1.00;1.00;;;-6.00;99.90;;;;;;4948345;28;20049;-75
2022/12/18 07:55:44;;;;;;;1.00;1.00;;;-6.00;99.90;;;;;;4940714;28;20075;-75
2022/12/18 07:58:10;;;;;;;1.00;1.00;;;-5.90;99.90;;;;;;4931908;28;20037;-75
2022/12/18 08:00:36;;;;;;;0.90;0.90;;;-5.90;99.90;;;;;;4939620;28;20534;-75
2022/12/18 08:03:02;;;;;;;1.00;1.00;;;-5.90;99.90;;;;;;4938439;28;20068;-75
2022/12/18 08:05:28;;;;;;;1.00;1.00;;;-5.80;99.90;;;;;;4935758;28;20056;-75
2022/12/18 08:07:54;;;;;;;0.98;0.98;;;-5.70;99.90;;;;;;4937069;28;20457;-75
2022/12/18 08:10:21;;;;;;;0.90;0.90;;;-5.60;99.90;;;;;;4941142;28;20852;-75
2022/12/18 08:12:50;;;;;;;1.00;1.00;;;-5.50;99.90;;;;;;4950174;28;20519;-75
2022/12/18 08:15:16;;;;;;;0.90;0.90;;;-5.40;99.90;;;;;;4940275;28;20053;-75
2022/12/18 08:17:41;;;;;;;1.00;1.00;;;-5.40;99.90;;;;;;4935581;28;20052;-75
2022/12/18 08:20:08;;;;;;;1.00;1.00;;;-5.40;99.90;;;;;;4936627;28;20507;-75
2022/12/18 08:22:35;;;;;;;0.98;0.98;;;-5.40;99.90;;;;;;4938001;28;20384;-75
2022/12/18 08:25:08;;;;;;;0.90;0.90;;;-5.30;99.90;;;;;;4942914;28;20604;-75
2022/12/18 08:27:34;;;;;;;0.90;0.90;;;-5.20;99.90;;;;;;4942028;28;20049;-75
2022/12/18 08:30:01;;;;;;;0.90;0.90;;;-5.20;99.90;;;;;;4941192;28;20873;-75
2022/12/18 08:32:28;;;;;;;0.90;0.90;;;-5.20;99.90;;;;;;4940558;28;20077;-75
2022/12/18 08:34:54;;;;;;;0.90;0.90;;;-5.10;99.90;;;;;;4929016;28;20053;-75
2022/12/18 08:37:20;;;;;;;0.90;0.90;;;-5.00;99.90;;;;;;4933832;28;20147;-75
2022/12/18 08:39:45;;;;;;;0.90;0.90;;;-5.00;99.90;;;;;;4938169;28;20706;-75
2022/12/18 08:44:56;;;;;;;0.90;0.90;;;-4.90;99.90;;;;;;4940450;28;20052;-75
2022/12/18 08:47:22;;;;;;;0.90;0.90;;;-4.90;99.90;;;;;;4940218;28;20706;-75
2022/12/18 08:49:47;;;;;;;0.90;0.90;;;-4.80;99.90;;;;;;4941733;28;20260;-74
2022/12/18 08:52:13;;;;;;;0.90;0.90;;;-4.70;99.90;;;;;;4940735;28;20041;-74
2022/12/18 08:54:39;;;;;;;1.00;1.00;;;-4.60;99.90;;;;;;4932788;28;20249;-76
2022/12/18 08:57:05;;;;;;;0.90;0.90;;;-4.50;99.90;;;;;;4939528;28;20601;-76
2022/12/18 08:59:31;;;;;;;0.90;0.90;;;-4.40;99.90;;;;;;4938871;28;20136;-75
2022/12/18 09:01:57;;;;;;;0.90;0.90;;;-4.20;99.90;;;;;;4937615;28;20860;-76
2022/12/18 09:04:23;;;;;;;0.90;0.90;;;-4.10;99.90;;;;;;4935374;28;20049;-75
2022/12/18 09:06:49;;;;;;;0.90;0.90;;;-3.90;99.90;;;;;;4938307;28;20045;-76
2022/12/18 09:09:15;;;;;;;0.90;0.90;;;-3.90;99.90;;;;;;4936689;28;20062;-75
2022/12/18 09:11:41;;;;;;;0.90;0.90;;;-3.80;99.90;;;;;;4938015;28;20053;-75
2022/12/18 09:14:07;;;;;;;0.90;0.90;;;-3.60;99.90;;;;;;4940095;28;20431;-74
2022/12/18 09:16:34;;;;;;;0.90;0.90;;;-3.50;99.90;;;;;;4937291;28;20049;-75
2022/12/18 09:19:02;;;;;;;0.80;0.80;;;-3.40;99.90;;;;;;4939959;28;20339;-75
2022/12/18 09:21:30;;;;;;;0.90;0.90;;;-3.40;99.90;;;;;;4937633;28;20056;-75
2022/12/18 09:23:57;;;;;;;0.90;0.90;;;-3.30;99.90;;;;;;4938982;28;20469;-75
2022/12/18 09:26:24;;;;;;;0.80;0.80;;;-3.30;99.90;;;;;;4940177;28;20701;-74
2022/12/18 09:28:50;;;;;;;0.80;0.80;;;-3.30;99.90;;;;;;4942902;28;20045;-75
2022/12/18 09:31:18;;;;;;;0.90;0.90;;;-3.10;99.90;;;;;;4946028;28;20064;-75
2022/12/18 09:33:45;;;;;;;0.90;0.90;;;-3.00;99.90;;;;;;4941430;28;20598;-76
2022/12/18 09:36:13;;;;;;;0.90;0.90;;;-2.90;99.90;;;;;;4938908;28;20056;-76
2022/12/18 09:38:39;;;;;;;0.90;0.90;;;-2.80;99.90;;;;;;4939289;28;20530;-75
2022/12/18 09:41:32;;;;;;;0.82;0.82;;;-2.80;99.90;;;;;;4938451;28;20751;-75
2022/12/18 09:44:02;;;;;;;0.80;0.80;;;-2.60;99.90;;;;;;4944918;28;20065;-76
2022/12/18 09:46:37;;;;;;;0.90;0.90;;;-2.50;99.90;;;;;;4934216;28;20157;-75
2022/12/18 09:49:12;;;;;;;0.80;0.80;;;-2.60;99.90;;;;;;4957909;28;20875;-75
2022/12/18 09:51:49;;;;;;;0.85;0.85;;;-2.50;99.90;;;;;;4937515;28;20072;-75
2022/12/18 09:54:24;;;;;;;0.80;0.80;;;-2.50;99.90;;;;;;4944989;28;20057;-75
2022/12/18 09:56:50;;;;;;;0.90;0.90;;;-2.50;99.90;;;;;;4941184;28;20049;-76
2022/12/18 09:59:34;;;;;;;0.80;0.80;;;-2.30;99.90;;;;;;4920357;28;20382;-75
2022/12/18 10:02:15;;;;;;;0.90;0.90;;;-2.30;99.90;;;;;;4947563;28;20060;-75
2022/12/18 10:04:42;;;;;;;0.80;0.80;;;-2.20;99.90;;;;;;4937993;28;20080;-75
2022/12/18 10:07:42;;;;;;;0.90;0.90;;;-2.10;99.90;;;;;;4942348;28;20041;-76
2022/12/18 10:10:22;;;;;;;0.90;0.90;;;-2.10;99.90;;;;;;4944034;28;20115;-75
2022/12/18 10:12:58;;;;;;;0.80;0.80;;;-2.10;99.90;;;;;;4945550;28;20045;-76
2022/12/18 10:15:31;;;;;;;0.80;0.80;;;-1.90;99.90;;;;;;4945766;28;20049;-74
2022/12/18 10:18:33;;;;;;;0.90;0.90;;;-1.90;99.90;;;;;;4944751;28;20049;-76
2022/12/18 10:21:25;;;;;;;0.90;0.90;;;-1.80;99.90;;;;;;4936227;28;20179;-76
2022/12/18 10:24:03;;;;;;;0.88;0.88;;;-1.80;99.90;;;;;;4937785;28;20041;-76
2022/12/18 10:26:31;;;;;;;0.80;0.80;;;-1.80;99.90;;;;;;4937166;28;20313;-76
2022/12/18 10:28:58;;;;;;;0.80;0.80;;;-1.90;99.90;;;;;;4943450;28;20411;-76
2022/12/18 10:31:24;;;;;;;0.82;0.82;;;-1.90;99.90;;;;;;4940425;28;20110;-76
2022/12/18 10:33:50;;;;;;;0.80;0.80;;;-1.90;99.90;;;;;;4939277;28;20458;-75
2022/12/18 10:36:16;;;;;;;0.80;0.80;;;-1.90;99.90;;;;;;4944801;28;20426;-76
2022/12/18 10:38:42;;;;;;;0.80;0.80;;;-1.90;99.90;;;;;;4936313;28;20425;-76
2022/12/18 10:41:18;;;;;;;0.80;0.80;;;-1.80;99.90;;;;;;4939365;28;20499;-77
2022/12/18 10:43:44;;;;;;;0.88;0.88;;;-1.80;99.90;;;;;;4951026;28;20550;-76
2022/12/18 10:46:10;;;;;;;0.80;0.80;;;-1.70;99.90;;;;;;4941474;28;20080;-76
2022/12/18 10:48:46;;;;;;;0.80;0.80;;;-1.70;99.90;;;;;;4942172;28;22487;-75
2022/12/18 10:51:30;;;;;;;0.80;0.80;;;-1.60;99.90;;;;;;4945536;28;20766;-76
2022/12/18 10:53:57;;;;;;;0.80;0.80;;;-1.50;99.90;;;;;;4941899;28;20064;-75
2022/12/18 10:56:26;;;;;;;0.80;0.80;;;-1.50;99.90;;;;;;4942500;28;20079;-75
2022/12/18 10:58:57;;;;;;;0.80;0.80;;;-1.40;99.90;;;;;;4929617;28;20049;-75
2022/12/18 11:01:23;;;;;;;0.80;0.80;;;-1.40;99.90;;;;;;4953964;28;20040;-75
2022/12/18 11:03:57;;;;;;;0.80;0.80;;;-1.40;99.90;;;;;;4932915;28;20048;-76
2022/12/18 11:06:25;;;;;;;0.90;0.90;;;-1.30;99.90;;;;;;4945562;28;20132;-75
2022/12/18 11:09:06;;;;;;;0.90;0.90;;;-1.20;99.90;;;;;;4943075;28;20056;-75
2022/12/18 11:11:33;;;;;;;0.80;0.80;;;-1.20;99.90;;;;;;4941881;28;20045;-76
2022/12/18 11:14:23;;;;;;;0.90;0.90;;;-1.20;99.90;;;;;;4918980;28;20102;-75
2022/12/18 11:16:51;;;;;;;0.80;0.80;;;-1.20;99.90;;;;;;4945442;28;21071;-75
2022/12/18 11:19:24;;;;;;;0.90;0.90;;;-1.10;99.90;;;;;;4945881;28;20147;-75
2022/12/18 11:21:50;;;;;;;;;;;-1.10;99.90;;;;;;4945776;28;20040;-76
2022/12/18 11:24:31;;;;;;;0.80;0.80;;;-1.10;99.90;;;;;;4941531;28;20277;-76
2022/12/18 11:27:03;;;;;;;0.80;0.80;;;-1.00;99.90;;;;;;4943058;28;20056;-76
2022/12/18 11:29:39;;;;;;;0.80;0.80;;;-1.00;99.90;;;;;;4934331;28;20436;-76
2022/12/18 11:32:14;;;;;;;0.90;0.90;;;-0.90;99.90;;;;;;4937820;28;20499;-76
2022/12/18 11:34:46;;;;;;;0.80;0.80;;;-0.90;99.90;;;;;;4940884;28;20134;-76
2022/12/18 11:37:13;;;;;;;0.90;0.90;;;-0.90;99.90;;;;;;4944472;28;20609;-76
2022/12/18 11:39:57;;;;;;;0.90;0.90;;;-0.80;99.90;;;;;;4934165;28;20631;-76
2022/12/18 11:42:42;;;;;;;0.80;0.80;;;-0.80;99.90;;;;;;4937600;28;20507;-76
2022/12/18 11:45:25;;;;;;;0.93;0.93;;;-0.70;99.90;;;;;;4941552;28;20076;-75
2022/12/18 11:48:15;;;;;;;0.80;0.80;;;-0.70;99.90;;;;;;4941768;28;20049;-76
2022/12/18 11:50:51;;;;;;;0.80;0.80;;;-0.60;99.90;;;;;;4938945;28;20254;-76
2022/12/18 11:53:18;;;;;;;0.80;0.80;;;-0.60;99.90;;;;;;4943019;28;20463;-76
2022/12/18 11:56:20;;;;;;;0.80;0.80;;;-0.60;99.90;;;;;;4944488;28;20045;-76
2022/12/18 11:58:53;;;;;;;0.80;0.80;;;-0.50;99.90;;;;;;4944735;28;20767;-76
2022/12/18 12:01:52;;;;;;;0.90;0.90;;;-0.50;99.90;;;;;;4936445;28;20559;-75
2022/12/18 12:04:47;;;;;;;0.80;0.80;;;-0.50;99.90;;;;;;4937964;28;20287;-76
2022/12/18 12:07:44;;;;;;;0.80;0.80;;;-0.40;99.90;;;;;;4943974;28;20798;-77
2022/12/18 12:10:39;;;;;;;0.80;0.80;;;-0.40;99.90;;;;;;4943930;28;20049;-75
2022/12/18 12:13:30;;;;;;;0.80;0.80;;;-0.40;99.90;;;;;;4939123;28;20057;-76
2022/12/18 12:16:02;;;;;;;0.82;0.82;;;-0.30;99.90;;;;;;4946036;28;20056;-76
2022/12/18 12:18:31;;;;;;;0.90;0.90;;;-0.30;99.90;;;;;;4942672;28;20208;-76
2022/12/18 12:21:17;;;;;;;0.80;0.80;;;-0.20;99.90;;;;;;4941442;28;20824;-78
2022/12/18 12:24:11;;;;;;;0.80;0.80;;;-0.30;99.90;;;;;;4941702;28;20071;-75
2022/12/18 12:26:49;;;;;;;;;;;-0.30;99.90;;;;;;4942691;28;20653;-76
2022/12/18 12:29:45;;;;;;;0.80;0.80;;;-0.30;99.90;;;;;;4944384;28;19929;-76
2022/12/18 12:32:47;;;;;;;0.80;0.80;;;-0.20;99.90;;;;;;4946907;28;20080;-76
2022/12/18 12:36:05;;;;;;;0.80;0.80;;;-0.20;99.90;;;;;;4938849;28;20045;-76
2022/12/18 12:38:36;;;;;;;0.80;0.80;;;-0.20;99.90;;;;;;4936802;28;20049;-76
2022/12/18 12:43:12;;;;;;;0.80;0.80;;;-0.10;99.90;;;;;;4945208;28;20057;-76
2022/12/18 12:43:59;;;;;;;0.80;0.80;;;-0.10;99.90;;;;;;4960075;28;20087;-76
2022/12/18 12:46:26;;;;;;;0.80;0.80;;;-0.10;99.90;;;;;;4963914;28;20053;-75
2022/12/18 12:49:20;;;;;;;0.80;0.80;;;-0.10;99.90;;;;;;4955415;28;20622;-76
2022/12/18 12:52:05;;;;;;;0.80;0.80;;;-0.10;99.90;;;;;;4950727;28;20198;-76
2022/12/18 12:54:32;;;;;;;0.80;0.80;;;-0.10;99.90;;;;;;4950951;28;20045;-78
2022/12/18 12:57:39;;;;;;;0.80;0.80;;;0.00;99.90;;;;;;4951024;28;20851;-76
2022/12/18 13:00:10;;;;;;;0.70;0.70;;;0.00;99.90;;;;;;4934591;28;20056;-79
2022/12/18 13:03:01;;;;;;;0.80;0.80;;;0.10;99.90;;;;;;4958700;28;20075;-75
2022/12/18 13:05:38;;;;;;;0.80;0.80;;;0.00;99.90;;;;;;4944909;28;20419;-76
2022/12/18 13:08:25;;;;;;;0.80;0.80;;;0.10;99.90;;;;;;4944326;28;20041;-76
2022/12/18 13:12:55;;;;;;;0.75;0.75;;;0.10;99.90;;;;;;4946670;28;20041;-76
2022/12/18 13:13:51;;;;;;;0.80;0.80;;;0.10;99.90;;;;;;4941605;28;20904;-75